createdAt,value
2018-02-05T00:00:14.719Z,0
2018-02-05T00:01:14.447Z,0
2018-02-05T00:02:14.693Z,0
2018-02-05T00:03:14.695Z,0
2018-02-05T00:04:14.660Z,0
2018-02-05T00:05:14.644Z,0
2018-02-05T00:06:14.653Z,0
2018-02-05T00:07:14.606Z,0
2018-02-05T00:08:14.337Z,0
2018-02-05T00:09:14.590Z,0
2018-02-05T00:10:14.558Z,0
2018-02-05T00:11:14.602Z,0
2018-02-05T00:12:14.030Z,0
2018-02-05T00:13:14.509Z,0
2018-02-05T00:14:14.505Z,0
2018-02-05T00:15:14.485Z,0
2018-02-05T00:16:14.471Z,0
2018-02-05T00:17:14.448Z,0
2018-02-05T00:18:14.180Z,0
2018-02-05T00:19:14.177Z,0
2018-02-05T00:20:14.403Z,0
2018-02-05T00:21:14.138Z,0
2018-02-05T00:22:14.121Z,0
2018-02-05T00:23:14.373Z,0
2018-02-05T00:24:14.350Z,0
2018-02-05T00:25:14.073Z,0
2018-02-05T00:26:14.066Z,0
2018-02-05T00:27:13.792Z,0
2018-02-05T00:28:14.277Z,0
2018-02-05T00:29:14.014Z,0
2018-02-05T00:30:14.258Z,0
2018-02-05T00:31:14.231Z,0
2018-02-05T00:32:13.964Z,0
2018-02-05T00:33:14.206Z,0
2018-02-05T00:34:14.182Z,0
2018-02-05T00:35:14.166Z,0
2018-02-05T00:36:14.156Z,0
2018-02-05T00:37:14.139Z,0
2018-02-05T00:38:13.873Z,0
2018-02-05T00:39:13.856Z,0
2018-02-05T00:40:13.842Z,0
2018-02-05T00:41:13.822Z,0
2018-02-05T00:42:13.550Z,0
2018-02-05T00:43:14.058Z,0
2018-02-05T00:44:13.776Z,0
2018-02-05T00:45:14.020Z,0
2018-02-05T00:46:13.741Z,0
2018-02-05T00:47:13.733Z,0
2018-02-05T00:48:13.713Z,0
2018-02-05T00:49:13.746Z,0
2018-02-05T00:50:13.936Z,0
2018-02-05T00:51:13.688Z,0
2018-02-05T00:52:13.654Z,0
2018-02-05T00:53:13.891Z,0
2018-02-05T00:54:13.366Z,0
2018-02-05T00:55:13.864Z,0
2018-02-05T00:56:13.846Z,0
2018-02-05T00:57:13.573Z,0
2018-02-05T00:58:13.558Z,0
2018-02-05T00:59:13.551Z,0
2018-02-05T01:00:13.544Z,0
2018-02-05T01:01:13.768Z,0
2018-02-05T01:02:13.749Z,0
2018-02-05T01:03:13.790Z,0
2018-02-05T01:04:13.209Z,0
2018-02-05T01:05:13.705Z,0
2018-02-05T01:06:13.433Z,0
2018-02-05T01:07:13.426Z,0
2018-02-05T01:08:13.672Z,0
2018-02-05T01:09:13.641Z,0
2018-02-05T01:10:13.628Z,0
2018-02-05T01:11:13.355Z,0
2018-02-05T01:12:13.339Z,0
2018-02-05T01:13:13.581Z,0
2018-02-05T01:14:13.056Z,0
2018-02-05T01:15:13.297Z,0
2018-02-05T01:16:13.286Z,0
2018-02-05T01:17:13.519Z,0
2018-02-05T01:18:13.503Z,0
2018-02-05T01:19:13.233Z,0
2018-02-05T01:20:13.290Z,0
2018-02-05T01:21:13.459Z,0
2018-02-05T01:22:13.440Z,0
2018-02-05T01:23:13.167Z,0
2018-02-05T01:24:13.414Z,0
2018-02-05T01:25:13.395Z,0
2018-02-05T01:26:13.127Z,0
2018-02-05T01:27:13.363Z,0
2018-02-05T01:28:13.350Z,0
2018-02-05T01:29:13.076Z,0
2018-02-05T01:30:13.310Z,0
2018-02-05T01:31:13.306Z,0
2018-02-05T01:32:13.027Z,0
2018-02-05T01:33:13.018Z,0
2018-02-05T01:34:13.255Z,0
2018-02-05T01:35:13.241Z,0
2018-02-05T01:36:13.218Z,0
2018-02-05T01:37:12.947Z,0
2018-02-05T01:38:13.199Z,0
2018-02-05T01:39:13.174Z,0
2018-02-05T01:40:12.911Z,0
2018-02-05T01:41:13.154Z,0
2018-02-05T01:42:13.135Z,0
2018-02-05T01:43:13.118Z,0
2018-02-05T01:44:12.586Z,0
2018-02-05T01:45:12.823Z,0
2018-02-05T01:46:13.067Z,0
2018-02-05T01:47:13.056Z,0
2018-02-05T01:48:12.780Z,0
2018-02-05T01:49:13.023Z,0
2018-02-05T01:50:13.004Z,0
2018-02-05T01:51:12.984Z,0
2018-02-05T01:52:12.458Z,0
2018-02-05T01:53:12.715Z,0
2018-02-05T01:54:12.964Z,0
2018-02-05T01:55:12.931Z,0
2018-02-05T01:56:12.398Z,0
2018-02-05T01:57:12.955Z,0
2018-02-05T01:58:12.877Z,0
2018-02-05T01:59:12.858Z,0
2018-02-05T02:00:12.585Z,0
2018-02-05T02:01:12.827Z,0
2018-02-05T02:02:12.811Z,0
2018-02-05T02:03:12.796Z,0
2018-02-05T02:04:12.775Z,0
2018-02-05T02:05:12.509Z,0
2018-02-05T02:06:12.750Z,0
2018-02-05T02:07:12.482Z,0
2018-02-05T02:08:12.732Z,0
2018-02-05T02:09:12.713Z,0
2018-02-05T02:10:12.179Z,0
2018-02-05T02:11:12.423Z,0
2018-02-05T02:12:12.149Z,0
2018-02-05T02:13:12.388Z,0
2018-02-05T02:14:12.118Z,0
2018-02-05T02:15:12.357Z,0
2018-02-05T02:16:12.342Z,0
2018-02-05T02:17:12.574Z,0
2018-02-05T02:18:12.332Z,0
2018-02-05T02:19:12.548Z,0
2018-02-05T02:20:12.026Z,0
2018-02-05T02:21:12.516Z,0
2018-02-05T02:22:12.250Z,0
2018-02-05T02:23:12.230Z,0
2018-02-05T02:24:12.222Z,0
2018-02-05T02:25:12.451Z,0
2018-02-05T02:26:12.432Z,0
2018-02-05T02:27:12.167Z,0
2018-02-05T02:28:12.150Z,0
2018-02-05T02:29:12.391Z,0
2018-02-05T02:30:12.127Z,0
2018-02-05T02:31:12.364Z,0
2018-02-05T02:32:12.349Z,0
2018-02-05T02:33:12.328Z,0
2018-02-05T02:34:12.076Z,0
2018-02-05T02:35:12.060Z,0
2018-02-05T02:36:12.023Z,0
2018-02-05T02:37:12.271Z,0
2018-02-05T02:38:12.000Z,0
2018-02-05T02:39:11.980Z,0
2018-02-05T02:40:11.960Z,0
2018-02-05T02:41:11.942Z,0
2018-02-05T02:42:11.937Z,0
2018-02-05T02:43:11.661Z,0
2018-02-05T02:44:12.157Z,0
2018-02-05T02:45:12.136Z,0
2018-02-05T02:46:11.617Z,0
2018-02-05T02:47:11.851Z,0
2018-02-05T02:48:11.835Z,0
2018-02-05T02:49:12.074Z,0
2018-02-05T02:50:11.825Z,0
2018-02-05T02:51:12.051Z,0
2018-02-05T02:52:12.030Z,0
2018-02-05T02:53:12.060Z,0
2018-02-05T02:54:11.743Z,0
2018-02-05T02:55:11.727Z,0
2018-02-05T02:56:11.966Z,0
2018-02-05T02:57:11.950Z,0
2018-02-05T02:58:11.926Z,0
2018-02-05T02:59:11.926Z,0
2018-02-05T03:00:12.328Z,0
2018-02-05T03:01:11.378Z,0
2018-02-05T03:02:11.623Z,0
2018-02-05T03:03:11.859Z,0
2018-02-05T03:04:11.852Z,0
2018-02-05T03:05:11.838Z,0
2018-02-05T03:06:11.819Z,0
2018-02-05T03:07:11.540Z,4
2018-02-05T03:08:11.770Z,4
2018-02-05T03:09:11.759Z,4
2018-02-05T03:10:11.747Z,4
2018-02-05T03:11:11.469Z,4
2018-02-05T03:12:11.507Z,4
2018-02-05T03:13:11.440Z,0
2018-02-05T03:14:11.671Z,0
2018-02-05T03:15:11.407Z,0
2018-02-05T03:16:11.644Z,0
2018-02-05T03:17:11.632Z,0
2018-02-05T03:18:11.620Z,0
2018-02-05T03:19:10.832Z,0
2018-02-05T03:20:11.588Z,0
2018-02-05T03:21:11.563Z,0
2018-02-05T03:22:11.553Z,0
2018-02-05T03:23:11.542Z,0
2018-02-05T03:24:11.263Z,0
2018-02-05T03:25:11.502Z,0
2018-02-05T03:26:11.233Z,0
2018-02-05T03:27:11.479Z,0
2018-02-05T03:28:11.199Z,0
2018-02-05T03:29:11.438Z,0
2018-02-05T03:30:11.435Z,0
2018-02-05T03:31:10.897Z,0
2018-02-05T03:32:11.139Z,0
2018-02-05T03:33:11.372Z,0
2018-02-05T03:34:11.158Z,0
2018-02-05T03:35:10.835Z,0
2018-02-05T03:36:11.323Z,0
2018-02-05T03:37:11.057Z,0
2018-02-05T03:38:11.051Z,0
2018-02-05T03:39:11.280Z,0
2018-02-05T03:40:11.262Z,0
2018-02-05T03:41:10.741Z,0
2018-02-05T03:42:11.234Z,0
2018-02-05T03:43:10.962Z,0
2018-02-05T03:44:10.947Z,0
2018-02-05T03:45:10.942Z,0
2018-02-05T03:46:11.165Z,0
2018-02-05T03:47:10.937Z,0
2018-02-05T03:48:11.144Z,0
2018-02-05T03:49:11.121Z,0
2018-02-05T03:50:11.114Z,0
2018-02-05T03:51:11.090Z,0
2018-02-05T03:52:10.823Z,0
2018-02-05T03:53:11.065Z,0
2018-02-05T03:54:10.275Z,0
2018-02-05T03:55:10.526Z,0
2018-02-05T03:56:10.752Z,0
2018-02-05T03:57:10.995Z,0
2018-02-05T03:58:10.977Z,0
2018-02-05T03:59:10.710Z,0
2018-02-05T04:00:10.939Z,0
2018-02-05T04:01:10.672Z,0
2018-02-05T04:02:10.405Z,0
2018-02-05T04:03:10.642Z,0
2018-02-05T04:04:10.365Z,0
2018-02-05T04:05:10.609Z,0
2018-02-05T04:06:10.847Z,0
2018-02-05T04:07:10.576Z,0
2018-02-05T04:08:10.559Z,0
2018-02-05T04:09:10.292Z,0
2018-02-05T04:10:10.778Z,0
2018-02-05T04:11:10.773Z,0
2018-02-05T04:12:10.746Z,0
2018-02-05T04:13:10.485Z,0
2018-02-05T04:14:10.461Z,0
2018-02-05T04:15:10.703Z,0
2018-02-05T04:16:10.696Z,0
2018-02-05T04:17:10.675Z,0
2018-02-05T04:18:10.658Z,0
2018-02-05T04:19:10.633Z,0
2018-02-05T04:20:10.114Z,0
2018-02-05T04:21:10.357Z,0
2018-02-05T04:22:10.585Z,0
2018-02-05T04:23:10.575Z,0
2018-02-05T04:24:10.596Z,0
2018-02-05T04:25:10.535Z,0
2018-02-05T04:26:10.266Z,0
2018-02-05T04:27:10.281Z,0
2018-02-05T04:28:10.235Z,0
2018-02-05T04:29:10.536Z,0
2018-02-05T04:30:10.464Z,0
2018-02-05T04:31:10.186Z,0
2018-02-05T04:32:09.914Z,0
2018-02-05T04:33:10.407Z,0
2018-02-05T04:34:10.396Z,0
2018-02-05T04:35:09.864Z,0
2018-02-05T04:36:10.100Z,0
2018-02-05T04:37:10.090Z,0
2018-02-05T04:38:10.081Z,0
2018-02-05T04:39:10.054Z,0
2018-02-05T04:40:09.788Z,0
2018-02-05T04:41:10.281Z,0
2018-02-05T04:42:09.776Z,0
2018-02-05T04:43:10.244Z,0
2018-02-05T04:44:09.971Z,0
2018-02-05T04:45:09.960Z,0
2018-02-05T04:46:09.432Z,0
2018-02-05T04:47:10.179Z,0
2018-02-05T04:48:10.162Z,0
2018-02-05T04:49:09.640Z,0
2018-02-05T04:50:10.124Z,0
2018-02-05T04:51:10.114Z,0
2018-02-05T04:52:09.843Z,0
2018-02-05T04:53:09.821Z,0
2018-02-05T04:54:09.814Z,0
2018-02-05T04:55:10.042Z,0
2018-02-05T04:56:09.781Z,0
2018-02-05T04:57:10.011Z,0
2018-02-05T04:58:09.740Z,0
2018-02-05T04:59:09.976Z,0
2018-02-05T05:00:09.716Z,0
2018-02-05T05:01:09.951Z,0
2018-02-05T05:02:09.672Z,0
2018-02-05T05:03:09.656Z,0
2018-02-05T05:04:09.645Z,0
2018-02-05T05:05:09.623Z,0
2018-02-05T05:06:09.610Z,0
2018-02-05T05:07:09.851Z,0
2018-02-05T05:08:09.582Z,0
2018-02-05T05:09:09.812Z,0
2018-02-05T05:10:09.793Z,0
2018-02-05T05:11:09.538Z,0
2018-02-05T05:12:09.766Z,0
2018-02-05T05:13:09.746Z,0
2018-02-05T05:14:09.736Z,0
2018-02-05T05:15:09.469Z,0
2018-02-05T05:16:09.460Z,0
2018-02-05T05:17:09.684Z,0
2018-02-05T05:18:09.417Z,0
2018-02-05T05:19:09.399Z,0
2018-02-05T05:20:09.635Z,0
2018-02-05T05:21:09.621Z,0
2018-02-05T05:22:09.624Z,0
2018-02-05T05:23:09.339Z,0
2018-02-05T05:24:09.574Z,0
2018-02-05T05:25:09.622Z,0
2018-02-05T05:26:09.301Z,0
2018-02-05T05:27:09.270Z,0
2018-02-05T05:28:09.512Z,0
2018-02-05T05:29:09.548Z,0
2018-02-05T05:30:09.479Z,0
2018-02-05T05:31:09.459Z,0
2018-02-05T05:32:09.443Z,0
2018-02-05T05:33:09.433Z,0
2018-02-05T05:34:09.159Z,0
2018-02-05T05:35:09.409Z,0
2018-02-05T05:36:09.390Z,0
2018-02-05T05:37:09.363Z,0
2018-02-05T05:38:09.088Z,0
2018-02-05T05:39:09.331Z,0
2018-02-05T05:40:09.319Z,0
2018-02-05T05:41:09.352Z,0
2018-02-05T05:42:09.281Z,0
2018-02-05T05:43:09.266Z,0
2018-02-05T05:44:08.995Z,0
2018-02-05T05:45:09.234Z,0
2018-02-05T05:46:08.962Z,0
2018-02-05T05:47:08.690Z,0
2018-02-05T05:48:09.179Z,0
2018-02-05T05:49:09.167Z,0
2018-02-05T05:50:08.646Z,0
2018-02-05T05:51:09.149Z,0
2018-02-05T05:52:08.869Z,0
2018-02-05T05:53:09.101Z,0
2018-02-05T05:54:09.080Z,0
2018-02-05T05:55:09.132Z,0
2018-02-05T05:56:08.796Z,0
2018-02-05T05:57:09.052Z,0
2018-02-05T05:58:08.761Z,0
2018-02-05T05:59:09.009Z,0
2018-02-05T06:00:08.992Z,0
2018-02-05T06:01:08.719Z,0
2018-02-05T06:02:08.706Z,4
2018-02-05T06:03:08.684Z,4
2018-02-05T06:04:08.920Z,0
2018-02-05T06:05:08.906Z,4
2018-02-05T06:06:08.630Z,0
2018-02-05T06:07:08.872Z,4
2018-02-05T06:08:08.595Z,4
2018-02-05T06:09:08.837Z,4
2018-02-05T06:10:08.563Z,4
2018-02-05T06:11:08.803Z,4
2018-02-05T06:12:08.274Z,8
2018-02-05T06:13:08.850Z,8
2018-02-05T06:14:08.745Z,12
2018-02-05T06:15:08.795Z,12
2018-02-05T06:16:08.729Z,12
2018-02-05T06:17:08.697Z,12
2018-02-05T06:18:08.684Z,16
2018-02-05T06:19:08.670Z,16
2018-02-05T06:20:08.140Z,24
2018-02-05T06:21:08.385Z,28
2018-02-05T06:22:08.671Z,32
2018-02-05T06:23:08.349Z,36
2018-02-05T06:24:08.332Z,40
2018-02-05T06:25:08.319Z,48
2018-02-05T06:26:08.550Z,56
2018-02-05T06:27:08.533Z,60
2018-02-05T06:28:08.512Z,68
2018-02-05T06:29:08.497Z,76
2018-02-05T06:30:07.975Z,84
2018-02-05T06:31:07.962Z,92
2018-02-05T06:32:08.448Z,100
2018-02-05T06:33:08.439Z,112
2018-02-05T06:34:08.409Z,120
2018-02-05T06:35:08.399Z,132
2018-02-05T06:36:07.872Z,144
2018-02-05T06:37:08.112Z,156
2018-02-05T06:38:07.842Z,172
2018-02-05T06:39:08.335Z,196
2018-02-05T06:40:08.321Z,220
2018-02-05T06:41:08.308Z,244
2018-02-05T06:42:08.278Z,276
2018-02-05T06:43:08.264Z,308
2018-02-05T06:44:08.255Z,344
2018-02-05T06:45:07.721Z,384
2018-02-05T06:46:07.972Z,424
2018-02-05T06:47:07.685Z,468
2018-02-05T06:48:07.927Z,508
2018-02-05T06:49:08.165Z,556
2018-02-05T06:50:07.639Z,604
2018-02-05T06:51:08.129Z,648
2018-02-05T06:52:08.120Z,684
2018-02-05T06:53:08.096Z,724
2018-02-05T06:54:07.825Z,764
2018-02-05T06:55:07.825Z,796
2018-02-05T06:56:07.794Z,828
2018-02-05T06:57:08.032Z,864
2018-02-05T06:58:07.757Z,900
2018-02-05T06:59:07.745Z,944
2018-02-05T07:00:08.026Z,976
2018-02-05T07:01:07.717Z,1012
2018-02-05T07:02:07.694Z,1040
2018-02-05T07:03:07.674Z,1084
2018-02-05T07:04:07.662Z,1128
2018-02-05T07:05:07.142Z,1188
2018-02-05T07:06:07.913Z,1228
2018-02-05T07:07:07.874Z,1256
2018-02-05T07:08:07.597Z,1300
2018-02-05T07:09:07.891Z,1344
2018-02-05T07:10:07.565Z,1392
2018-02-05T07:11:07.546Z,1436
2018-02-05T07:12:07.551Z,1480
2018-02-05T07:13:07.517Z,1524
2018-02-05T07:14:07.753Z,1600
2018-02-05T07:15:07.258Z,1660
2018-02-05T07:16:07.460Z,1704
2018-02-05T07:17:07.456Z,1748
2018-02-05T07:18:07.685Z,1788
2018-02-05T07:19:07.670Z,1824
2018-02-05T07:20:07.395Z,1852
2018-02-05T07:21:07.372Z,1944
2018-02-05T07:22:07.355Z,2056
2018-02-05T07:23:07.598Z,2188
2018-02-05T07:24:07.580Z,2312
2018-02-05T07:25:07.307Z,2576
2018-02-05T07:26:07.545Z,2944
2018-02-05T07:27:07.520Z,3140
2018-02-05T07:28:07.512Z,3196
2018-02-05T07:29:07.495Z,3168
2018-02-05T07:30:07.492Z,3144
2018-02-05T07:31:07.462Z,3252
2018-02-05T07:32:06.937Z,3408
2018-02-05T07:33:07.510Z,3668
2018-02-05T07:34:07.191Z,3756
2018-02-05T07:35:07.393Z,3680
2018-02-05T07:36:07.380Z,3484
2018-02-05T07:37:07.112Z,3296
2018-02-05T07:38:07.774Z,3044
2018-02-05T07:39:07.339Z,2840
2018-02-05T07:40:07.068Z,3428
2018-02-05T07:41:07.344Z,3988
2018-02-05T07:42:07.030Z,4008
2018-02-05T07:43:07.266Z,3968
2018-02-05T07:44:06.997Z,3968
2018-02-05T07:45:07.236Z,3404
2018-02-05T07:46:07.223Z,3164
2018-02-05T07:47:06.951Z,2968
2018-02-05T07:48:07.193Z,2896
2018-02-05T07:49:07.180Z,2628
2018-02-05T07:50:07.164Z,2632
2018-02-05T07:51:06.886Z,2600
2018-02-05T07:52:07.124Z,2692
2018-02-05T07:53:07.120Z,2780
2018-02-05T07:54:07.106Z,3440
2018-02-05T07:55:06.863Z,4128
2018-02-05T07:56:07.135Z,4988
2018-02-05T07:57:07.041Z,5736
2018-02-05T07:58:07.028Z,5848
2018-02-05T07:59:07.011Z,6880
2018-02-05T08:00:07.015Z,5632
2018-02-05T08:01:06.981Z,5544
2018-02-05T08:02:07.004Z,6368
2018-02-05T08:03:06.447Z,8492
2018-02-05T08:04:06.937Z,7888
2018-02-05T08:05:06.668Z,9228
2018-02-05T08:06:06.676Z,7936
2018-02-05T08:07:06.897Z,7892
2018-02-05T08:08:06.982Z,8508
2018-02-05T08:09:06.606Z,8932
2018-02-05T08:10:06.849Z,9144
2018-02-05T08:11:06.583Z,8892
2018-02-05T08:12:06.821Z,7584
2018-02-05T08:13:06.802Z,6480
2018-02-05T08:14:06.532Z,5908
2018-02-05T08:15:06.767Z,5592
2018-02-05T08:16:06.759Z,5492
2018-02-05T08:17:06.239Z,5608
2018-02-05T08:18:06.732Z,5408
2018-02-05T08:19:06.730Z,5112
2018-02-05T08:20:06.739Z,5160
2018-02-05T08:21:05.926Z,5232
2018-02-05T08:22:06.166Z,5304
2018-02-05T08:23:06.407Z,5376
2018-02-05T08:24:06.388Z,5360
2018-02-05T08:25:06.375Z,5404
2018-02-05T08:26:06.466Z,5684
2018-02-05T08:27:06.608Z,5768
2018-02-05T08:28:06.334Z,5900
2018-02-05T08:29:06.572Z,5992
2018-02-05T08:30:06.319Z,6100
2018-02-05T08:31:06.543Z,5976
2018-02-05T08:32:06.279Z,5944
2018-02-05T08:33:06.524Z,6232
2018-02-05T08:34:06.248Z,6324
2018-02-05T08:35:06.235Z,6204
2018-02-05T08:36:05.967Z,6284
2018-02-05T08:37:06.492Z,5980
2018-02-05T08:38:06.190Z,5928
2018-02-05T08:39:06.177Z,5760
2018-02-05T08:40:06.427Z,5480
2018-02-05T08:41:06.147Z,5260
2018-02-05T08:42:06.131Z,5024
2018-02-05T08:43:06.121Z,5016
2018-02-05T08:44:06.136Z,5344
2018-02-05T08:45:06.343Z,5648
2018-02-05T08:46:06.081Z,5976
2018-02-05T08:47:06.326Z,6064
2018-02-05T08:48:05.815Z,6084
2018-02-05T08:49:06.301Z,5760
2018-02-05T08:50:06.279Z,5664
2018-02-05T08:51:05.751Z,5564
2018-02-05T08:52:06.249Z,5644
2018-02-05T08:53:05.976Z,5788
2018-02-05T08:54:20.879Z,6108
2018-02-05T08:55:06.201Z,6396
2018-02-05T08:56:05.680Z,6564
2018-02-05T08:57:06.170Z,6604
2018-02-05T08:58:05.908Z,6732
2018-02-05T08:59:05.641Z,6964
2018-02-05T09:00:06.135Z,7000
2018-02-05T09:01:05.864Z,7108
2018-02-05T09:02:05.848Z,6900
2018-02-05T09:03:06.088Z,7072
2018-02-05T09:04:06.132Z,7440
2018-02-05T09:05:05.807Z,7860
2018-02-05T09:06:05.538Z,8172
2018-02-05T09:07:05.806Z,8372
2018-02-05T09:08:06.015Z,8864
2018-02-05T09:09:05.756Z,8228
2018-02-05T09:10:05.523Z,8024
2018-02-05T09:11:05.760Z,7880
2018-02-05T09:12:05.712Z,8376
2018-02-05T09:13:05.700Z,8576
2018-02-05T09:14:05.736Z,8788
2018-02-05T09:15:05.665Z,9560
2018-02-05T09:16:05.918Z,10944
2018-02-05T09:17:05.887Z,10568
2018-02-05T09:18:05.624Z,8512
2018-02-05T09:19:05.865Z,8964
2018-02-05T09:20:05.344Z,9448
2018-02-05T09:21:05.585Z,8348
2018-02-05T09:22:05.563Z,9320
2018-02-05T09:23:05.321Z,9004
2018-02-05T09:24:05.869Z,8896
2018-02-05T09:25:05.789Z,10912
2018-02-05T09:26:05.766Z,10420
2018-02-05T09:27:05.754Z,10404
2018-02-05T09:28:05.742Z,10676
2018-02-05T09:29:04.972Z,10268
2018-02-05T09:30:05.459Z,11544
2018-02-05T09:31:04.940Z,11708
2018-02-05T09:32:20.358Z,12528
2018-02-05T09:33:05.437Z,12888
2018-02-05T09:34:05.690Z,14328
2018-02-05T09:35:05.394Z,14568
2018-02-05T09:36:05.681Z,13364
2018-02-05T09:37:05.369Z,10476
2018-02-05T09:38:05.350Z,8316
2018-02-05T09:39:05.356Z,8856
2018-02-05T09:40:05.580Z,8136
2018-02-05T09:41:05.572Z,8260
2018-02-05T09:42:05.558Z,8208
2018-02-05T09:43:05.292Z,7896
2018-02-05T09:44:05.531Z,7120
2018-02-05T09:45:05.269Z,6784
2018-02-05T09:46:05.449Z,6796
2018-02-05T09:47:05.230Z,6720
2018-02-05T09:48:05.476Z,6064
2018-02-05T09:49:05.471Z,5204
2018-02-05T09:50:05.447Z,5308
2018-02-05T09:51:05.193Z,5652
2018-02-05T09:52:05.556Z,5152
2018-02-05T09:53:05.417Z,5312
2018-02-05T09:54:04.894Z,4640
2018-02-05T09:55:05.393Z,4412
2018-02-05T09:56:05.377Z,4496
2018-02-05T09:57:05.365Z,4664
2018-02-05T09:58:05.338Z,5208
2018-02-05T09:59:05.075Z,4888
2018-02-05T10:00:05.366Z,4856
2018-02-05T10:01:05.352Z,5108
2018-02-05T10:02:05.030Z,5208
2018-02-05T10:03:05.264Z,5284
2018-02-05T10:04:05.282Z,5388
2018-02-05T10:05:05.048Z,5240
2018-02-05T10:06:04.982Z,5812
2018-02-05T10:07:04.962Z,5940
2018-02-05T10:08:05.203Z,5432
2018-02-05T10:09:05.194Z,4952
2018-02-05T10:10:04.948Z,5264
2018-02-05T10:11:05.160Z,5764
2018-02-05T10:12:05.144Z,5572
2018-02-05T10:13:04.870Z,6076
2018-02-05T10:14:05.112Z,7592
2018-02-05T10:15:04.853Z,9588
2018-02-05T10:16:04.827Z,10936
2018-02-05T10:17:05.069Z,9732
2018-02-05T10:18:05.078Z,8928
2018-02-05T10:19:05.049Z,7668
2018-02-05T10:20:05.026Z,6300
2018-02-05T10:21:05.027Z,5476
2018-02-05T10:22:04.997Z,4920
2018-02-05T10:23:04.765Z,4896
2018-02-05T10:24:04.972Z,4824
2018-02-05T10:25:04.703Z,4976
2018-02-05T10:26:04.695Z,5336
2018-02-05T10:27:04.682Z,5632
2018-02-05T10:28:04.676Z,5920
2018-02-05T10:29:04.652Z,5916
2018-02-05T10:30:04.640Z,5752
2018-02-05T10:31:04.625Z,5760
2018-02-05T10:32:04.873Z,5768
2018-02-05T10:33:04.855Z,6228
2018-02-05T10:34:04.578Z,6124
2018-02-05T10:35:04.853Z,4988
2018-02-05T10:36:04.553Z,4620
2018-02-05T10:37:04.811Z,4524
2018-02-05T10:38:04.788Z,4508
2018-02-05T10:39:04.782Z,4524
2018-02-05T10:40:18.912Z,4824
2018-02-05T10:41:04.493Z,4896
2018-02-05T10:42:03.962Z,4956
2018-02-05T10:43:04.500Z,4932
2018-02-05T10:44:04.448Z,5476
2018-02-05T10:45:04.678Z,5828
2018-02-05T10:46:04.416Z,6508
2018-02-05T10:47:04.657Z,6212
2018-02-05T10:48:04.637Z,6168
2018-02-05T10:49:04.387Z,6196
2018-02-05T10:50:19.273Z,6592
2018-02-05T10:51:04.605Z,6604
2018-02-05T10:52:04.084Z,6736
2018-02-05T10:53:04.314Z,7368
2018-02-05T10:54:04.553Z,8272
2018-02-05T10:55:03.786Z,7852
2018-02-05T10:56:04.271Z,7152
2018-02-05T10:57:04.539Z,7464
2018-02-05T10:58:19.168Z,8652
2018-02-05T10:59:04.489Z,8884
2018-02-05T11:00:04.467Z,7760
2018-02-05T11:01:04.202Z,6560
2018-02-05T11:02:04.456Z,6124
2018-02-05T11:03:04.427Z,5984
2018-02-05T11:04:03.907Z,5632
2018-02-05T11:05:04.397Z,5764
2018-02-05T11:06:04.387Z,6004
2018-02-05T11:07:04.125Z,6296
2018-02-05T11:08:04.352Z,6284
2018-02-05T11:09:04.347Z,7428
2018-02-05T11:10:04.324Z,8280
2018-02-05T11:11:04.062Z,9096
2018-02-05T11:12:04.302Z,9844
2018-02-05T11:13:04.055Z,9656
2018-02-05T11:14:04.274Z,8860
2018-02-05T11:15:04.010Z,7812
2018-02-05T11:16:04.253Z,8764
2018-02-05T11:17:03.985Z,11416
2018-02-05T11:18:04.224Z,13324
2018-02-05T11:19:04.221Z,13628
2018-02-05T11:20:04.203Z,12568
2018-02-05T11:21:03.929Z,12428
2018-02-05T11:22:03.407Z,12400
2018-02-05T11:23:04.261Z,11776
2018-02-05T11:24:04.143Z,11384
2018-02-05T11:25:04.128Z,11520
2018-02-05T11:26:03.864Z,11900
2018-02-05T11:27:03.855Z,11700
2018-02-05T11:28:03.918Z,10780
2018-02-05T11:29:04.079Z,9436
2018-02-05T11:30:03.815Z,8092
2018-02-05T11:31:04.054Z,7088
2018-02-05T11:32:04.050Z,6436
2018-02-05T11:33:04.051Z,6176
2018-02-05T11:34:04.052Z,6272
2018-02-05T11:35:03.823Z,6932
2018-02-05T11:36:03.751Z,7500
2018-02-05T11:37:03.996Z,7580
2018-02-05T11:38:04.003Z,7068
2018-02-05T11:39:03.964Z,6516
2018-02-05T11:40:03.964Z,6400
2018-02-05T11:41:03.682Z,5916
2018-02-05T11:42:03.669Z,5304
2018-02-05T11:43:03.403Z,4576
2018-02-05T11:44:03.897Z,4144
2018-02-05T11:45:03.683Z,4284
2018-02-05T11:46:03.904Z,4504
2018-02-05T11:47:03.632Z,4812
2018-02-05T11:48:03.611Z,5444
2018-02-05T11:49:03.882Z,5780
2018-02-05T11:50:03.333Z,5456
2018-02-05T11:51:03.555Z,5448
2018-02-05T11:52:03.823Z,5168
2018-02-05T11:53:03.795Z,4868
2018-02-05T11:54:03.778Z,4808
2018-02-05T11:55:03.755Z,4996
2018-02-05T11:56:03.775Z,4972
2018-02-05T11:57:03.729Z,4592
2018-02-05T11:58:03.725Z,4216
2018-02-05T11:59:03.450Z,3956
2018-02-05T12:00:03.700Z,3788
2018-02-05T12:01:03.449Z,3796
2018-02-05T12:02:03.673Z,3852
2018-02-05T12:03:03.649Z,3936
2018-02-05T12:04:03.385Z,4040
2018-02-05T12:05:03.631Z,4196
2018-02-05T12:06:03.399Z,4436
2018-02-05T12:07:03.343Z,4724
2018-02-05T12:08:03.584Z,5160
2018-02-05T12:09:03.320Z,5848
2018-02-05T12:10:03.320Z,6484
2018-02-05T12:11:03.319Z,7092
2018-02-05T12:12:03.273Z,7352
2018-02-05T12:13:03.517Z,7268
2018-02-05T12:14:03.507Z,7048
2018-02-05T12:15:03.491Z,6988
2018-02-05T12:16:18.140Z,6552
2018-02-05T12:17:03.516Z,6444
2018-02-05T12:18:03.473Z,6032
2018-02-05T12:19:03.432Z,5872
2018-02-05T12:20:03.172Z,6116
2018-02-05T12:22:03.143Z,8436
2018-02-05T12:23:02.874Z,9556
2018-02-05T12:24:03.109Z,9780
2018-02-05T12:25:02.846Z,10072
2018-02-05T12:26:03.335Z,9628
2018-02-05T12:27:03.321Z,9208
2018-02-05T12:28:03.305Z,9168
2018-02-05T12:29:03.037Z,9364
2018-02-05T12:30:03.310Z,9884
2018-02-05T12:31:03.012Z,7744
2018-02-05T12:32:03.282Z,5496
2018-02-05T12:33:03.243Z,4692
2018-02-05T12:34:03.239Z,4784
2018-02-05T12:35:03.213Z,5408
2018-02-05T12:36:02.946Z,6156
2018-02-05T12:37:03.184Z,5224
2018-02-05T12:38:03.261Z,4828
2018-02-05T12:39:03.168Z,4532
2018-02-05T12:40:03.156Z,4444
2018-02-05T12:41:03.208Z,4396
2018-02-05T12:42:02.864Z,4320
2018-02-05T12:43:02.856Z,4380
2018-02-05T12:44:02.847Z,4556
2018-02-05T12:45:03.091Z,4796
2018-02-05T12:46:03.076Z,4848
2018-02-05T12:47:02.802Z,4540
2018-02-05T12:48:03.047Z,4456
2018-02-05T12:49:03.036Z,4508
2018-02-05T12:50:03.014Z,4432
2018-02-05T12:51:03.027Z,4336
2018-02-05T12:52:03.003Z,4320
2018-02-05T12:53:02.781Z,4532
2018-02-05T12:54:02.733Z,4760
2018-02-05T12:55:02.949Z,4636
2018-02-05T12:56:02.932Z,4564
2018-02-05T12:57:02.412Z,4732
2018-02-05T12:58:02.899Z,4928
2018-02-05T12:59:02.895Z,5028
2018-02-05T13:00:02.901Z,4752
2018-02-05T13:01:02.611Z,4644
2018-02-05T13:02:02.859Z,4616
2018-02-05T13:03:02.833Z,4544
2018-02-05T13:04:02.833Z,4356
2018-02-05T13:05:02.566Z,4292
2018-02-05T13:06:02.795Z,4144
2018-02-05T13:07:02.528Z,3992
2018-02-05T13:08:02.509Z,4012
2018-02-05T13:09:02.759Z,4140
2018-02-05T13:10:02.799Z,4188
2018-02-05T13:11:02.773Z,4116
2018-02-05T13:12:02.710Z,3760
2018-02-05T13:13:02.691Z,3504
2018-02-05T13:14:02.717Z,3508
2018-02-05T13:15:02.675Z,3540
2018-02-05T13:16:02.406Z,3604
2018-02-05T13:17:02.643Z,3688
2018-02-05T13:18:02.381Z,3748
2018-02-05T13:19:02.607Z,3784
2018-02-05T13:20:02.597Z,3836
2018-02-05T13:21:02.595Z,3872
2018-02-05T13:22:02.058Z,3748
2018-02-05T13:23:02.555Z,3664
2018-02-05T13:24:02.288Z,3588
2018-02-05T13:25:02.526Z,3528
2018-02-05T13:26:02.506Z,3580
2018-02-05T13:27:02.496Z,3572
2018-02-05T13:28:02.481Z,3584
2018-02-05T13:29:02.525Z,3604
2018-02-05T13:30:02.456Z,3612
2018-02-05T13:31:02.184Z,3612
2018-02-05T13:32:02.425Z,3624
2018-02-05T13:33:02.168Z,3624
2018-02-05T13:34:02.407Z,3608
2018-02-05T13:35:02.391Z,3592
2018-02-05T13:36:02.107Z,3592
2018-02-05T13:37:02.345Z,3600
2018-02-05T13:38:02.083Z,3620
2018-02-05T13:39:02.320Z,3636
2018-02-05T13:40:02.379Z,3664
2018-02-05T13:41:02.034Z,3704
2018-02-05T13:42:02.065Z,3752
2018-02-05T13:43:02.259Z,3812
2018-02-05T13:44:02.239Z,3892
2018-02-05T13:45:02.246Z,3984
2018-02-05T13:46:01.961Z,4072
2018-02-05T13:47:02.202Z,4228
2018-02-05T13:48:02.208Z,4324
2018-02-05T13:49:01.916Z,4496
2018-02-05T13:50:02.187Z,4632
2018-02-05T13:51:02.193Z,4772
2018-02-05T13:52:01.653Z,5116
2018-02-05T13:53:02.105Z,5516
2018-02-05T13:54:02.106Z,6264
2018-02-05T13:55:02.082Z,7224
2018-02-05T13:56:01.583Z,7856
2018-02-05T13:57:02.054Z,8084
2018-02-05T13:58:01.790Z,6380